18:07
Airports
History
Links
Donate
Help keep this website running!
PayPal
Bitcoin
This page is community maintained. The information is intended for PC simulator navigation or reference.
Always use approved charts for navigation.
SSCO
Cmte Marilda Zaiden de Mesquita
Cmte Marilda Zaiden de Mesquita (SSCO)
Capão do Leão, Rio Grande do Sul, Brazil (96160)
4
Lat/Lng:31° 46' 27" S / 52° 27' 5" W
-31.774167 / -52.451389
Elevation:33'ft / 10mMSL
ID / ICAO:SSCO
Runways:1
Longest:03-21
Dirt 837m / 2,746ft
Nearby Weather18:00 GMT 2017-10-19
Nearby weather at SBPK, Pelotas located 8.1 nautical miles from SSCO
Altimeter: 29.91
Visibility: 6.2 statute miles
Wind: 15 knots (from 240°)
Temp: 23°c / 73°f
Humidity: 64.7%

METAR: SBPK 191800Z 24015KT 9999 BKN030 BKN040 23/16 Q1013

(Powered by phpweather)
Runway 03 / 21
Dimensions:836.9 x 18m 2746' x 59'ft
Surface:Dirt
Runway 03 [A]Runway 21 [B]
Heading:013°TH 193°TH
Lat:
Lng:
31° 46' 40.07"S
52° 27' 8.71"W
31° 46' 13.93"S
52° 27' 1.29"W
User Notes and Comments
31° 46' 27" S / 52° 27' 5" W
Distance To
Airport ID:
Nearby Airports
(U) Pelotas 8.1 NM
SBPK ( WX ) ENE 63°
4 Fazenda Santa Maria 10.8 NM
SSMH S 183°
4 Estancia da Gruta 11.7 NM
SSEG S 188°
4 Fazenda Palma 16.4 NM
SSPP ENE 60°
(U) Rio Grande 27.1 NM
SJRG SE 141°
(C) Sao Lourenco Do Sul 36.6 NM
SSRU NE 42°
(C) Arroio Grande 47.6 NM
SSAE SW 229°
VFR Chart
Flight Planning at SkyVector.com